Warning: Javascript must be enabled to use all the features on this page!


Page Loading - Please Wait...

* We've detected you're using a mobile device. Find our Next Generation Station Page here.
Click to hideNews Bulletins

Peak Streamflow for the Nation

USGS 07126200 VAN BREMER ARROYO NEAR MODEL, CO

Las Animas County, Colorado
Hydrologic Unit Code 11020010
Latitude  37°20'44", Longitude 103°57'27" NAD27
Drainage area 162  square miles
Gage datum 4,960 feet above NGVD29
Output formats
Table
Graph
Tab-separated file
peakfq (watstore) format
Reselect output format
Water
Year
Date Gage
Height
(feet)
Stream-
flow
(cfs)
1966 1966-07-19 3.81 1,020
1967 1967-05-26 9.40 6,240
1968 1968-07-24 5.19 2,180
1969 1969-06-16 4.05 1,190
1970 1970-07-23 3.31 696
1971 1971-08-19 4.85 1,860
1972 1972-09-14 4.93 1,940
1973 1973-07-30 5.70 2,660
1974 1974-05-24 0.61 10.0
1975 1975-07-21 5.90 1,400
1976 1976-07-20 5.32 1,070
1977 1977-07-21 8.20 3,900
1978 1978-08-04 4.15 565
1979 1979-08-09 9.98 6,050
1980 1980-08-14 1.69 72.0
1981 1981-05-30 8.15 3,830
1982 1982-06-11 5.78 1,330
1983 1983-08-19 1.66 70.0
1984 1984-07-10 2.93 223
1985 1985-05-18 1.97 86.0
1986 1986-07-01 6.48 1,860
1987 1987-08-09 4.49 673
1988 1988-08-24 2.89 167
1989 1989-07-31 3.16 202
1990 1990-07-23 2.11 83.0
1991 1991-08-04 0.58 3.10
1992 1992-06-07 3.45 279
1993 1993-08-18 2.78 151
1994 1994-08-19 5.50 960
1995 1995-06-28 6.90 2,170
1996 1996-07-22 5.73 1,300
1997 1997-07-28 2.95 164
1998 1998-08-03 6.98 2,250
1999 1999-08-03 9.16 4,770
2000 2000-08-21 3.20 177
2001 2000-10-29 1.90 19.0
2002 2002-07-22 1.30 1.20
2003 2003-06-18 3.86 3325
2004 2004-07-22 5.76 1,3005
2005 2005-04-05 4.20 3685
2006 2005-10-12 1.88 4.605
2007 2007-08-31 2.61 37.05
2008 2008-08-17 4.17 2165
2009 2008-10-12 4.47 4765
2010 2010-08-05 5.00 4895
2011 2011-07-28 3.24 1375
2012 2012-04-03 1.78 0.425
2013 2013-08-07 8.46 2,4205
2014 2014-07-27 7.38 1,5605
2015 2015-05-04 6.37 9885
2016 2016-08-06 3.79 2225
2017 2017-06-05 5.86 7675
2018 2018-07-23 8.29 1,5705
2019 2019-07-22 5.63 3735
2020 2020-06-19 4.57 1652,5
?
  Peak Streamflow Qualification Codes.